createdAt,value
2018-02-12T00:00:36.985Z,0
2018-02-12T00:01:37.703Z,0
2018-02-12T00:02:38.416Z,0
2018-02-12T00:03:39.140Z,0
2018-02-12T00:04:39.855Z,0
2018-02-12T00:05:40.569Z,0
2018-02-12T00:06:41.305Z,0
2018-02-12T00:07:42.019Z,0
2018-02-12T00:08:42.733Z,0
2018-02-12T00:09:43.447Z,0
2018-02-12T00:10:44.185Z,0
2018-02-12T00:11:44.902Z,0
2018-02-12T00:12:45.642Z,0
2018-02-12T00:13:46.358Z,0
2018-02-12T00:14:47.084Z,0
2018-02-12T00:15:47.836Z,0
2018-02-12T00:16:48.587Z,0
2018-02-12T00:17:49.302Z,0
2018-02-12T00:18:50.025Z,0
2018-02-12T00:19:50.732Z,0
2018-02-12T00:20:51.468Z,0
2018-02-12T00:21:52.185Z,0
2018-02-12T00:22:52.899Z,0
2018-02-12T00:23:53.640Z,0
2018-02-12T00:24:54.391Z,0
2018-02-12T00:25:55.101Z,0
2018-02-12T00:26:55.828Z,0
2018-02-12T00:27:56.544Z,0
2018-02-12T00:28:57.256Z,0
2018-02-12T00:29:57.982Z,0
2018-02-12T00:30:58.709Z,0
2018-02-12T00:31:59.458Z,0
2018-02-12T00:33:00.173Z,0
2018-02-12T00:34:00.923Z,0
2018-02-12T00:35:01.637Z,0
2018-02-12T00:36:02.352Z,0
2018-02-12T00:37:03.065Z,0
2018-02-12T00:38:03.808Z,0
2018-02-12T00:39:04.519Z,0
2018-02-12T00:40:05.247Z,0
2018-02-12T00:41:05.974Z,0
2018-02-12T00:42:06.734Z,0
2018-02-12T00:43:07.450Z,0
2018-02-12T00:44:08.164Z,0
2018-02-12T00:45:08.879Z,0
2018-02-12T00:46:09.595Z,0
2018-02-12T00:47:10.310Z,0
2018-02-12T00:48:11.034Z,0
2018-02-12T00:49:11.751Z,0
2018-02-12T00:50:12.468Z,0
2018-02-12T00:51:13.184Z,0
2018-02-12T00:52:13.898Z,0
2018-02-12T00:53:14.609Z,0
2018-02-12T00:54:15.349Z,0
2018-02-12T00:55:16.062Z,0
2018-02-12T00:56:16.777Z,0
2018-02-12T00:57:17.507Z,0
2018-02-12T00:58:18.223Z,0
2018-02-12T00:59:18.954Z,0
2018-02-12T01:00:19.701Z,0
2018-02-12T01:01:20.442Z,0
2018-02-12T01:02:21.160Z,0
2018-02-12T01:03:21.875Z,0
2018-02-12T01:04:22.617Z,0
2018-02-12T01:05:23.347Z,0
2018-02-12T01:06:24.058Z,0
2018-02-12T01:07:24.798Z,0
2018-02-12T01:08:25.513Z,0
2018-02-12T01:09:26.228Z,0
2018-02-12T01:10:26.954Z,0
2018-02-12T01:11:27.681Z,0
2018-02-12T01:12:28.397Z,0
2018-02-12T01:13:29.120Z,0
2018-02-12T01:14:29.836Z,0
2018-02-12T01:15:30.549Z,0
2018-02-12T01:16:31.298Z,0
2018-02-12T01:17:32.024Z,0
2018-02-12T01:18:32.774Z,0
2018-02-12T01:19:33.488Z,0
2018-02-12T01:20:34.204Z,0
2018-02-12T01:21:34.930Z,0
2018-02-12T01:22:35.646Z,0
2018-02-12T01:23:36.398Z,0
2018-02-12T01:24:37.113Z,0
2018-02-12T01:25:37.841Z,0
2018-02-12T01:26:38.568Z,0
2018-02-12T01:27:39.286Z,0
2018-02-12T01:28:40.026Z,0
2018-02-12T01:29:40.754Z,0
2018-02-12T01:30:41.481Z,0
2018-02-12T01:31:42.196Z,0
2018-02-12T01:32:42.922Z,0
2018-02-12T01:33:43.673Z,0
2018-02-12T01:34:44.392Z,0
2018-02-12T01:35:45.118Z,0
2018-02-12T01:36:45.832Z,0
2018-02-12T01:37:46.551Z,0
2018-02-12T01:38:47.289Z,0
2018-02-12T01:39:48.041Z,0
2018-02-12T01:40:48.793Z,0
2018-02-12T01:41:49.508Z,0
2018-02-12T01:42:50.248Z,0
2018-02-12T01:43:50.985Z,0
2018-02-12T01:44:51.703Z,0
2018-02-12T01:45:52.451Z,0
2018-02-12T01:46:53.167Z,0
2018-02-12T01:47:53.911Z,0
2018-02-12T01:48:54.639Z,0
2018-02-12T01:49:55.389Z,0
2018-02-12T01:50:56.105Z,0
2018-02-12T01:51:56.821Z,0
2018-02-12T01:52:57.557Z,0
2018-02-12T01:53:58.273Z,0
2018-02-12T01:54:58.996Z,0
2018-02-12T01:55:59.724Z,0
2018-02-12T01:57:00.451Z,0
2018-02-12T01:58:01.179Z,0
2018-02-12T01:59:01.907Z,0
2018-02-12T02:00:02.655Z,0
2018-02-12T02:01:03.383Z,0
2018-02-12T02:02:04.109Z,0
2018-02-12T02:03:04.823Z,0
2018-02-12T02:04:05.559Z,0
2018-02-12T02:05:06.277Z,0
2018-02-12T02:06:07.004Z,0
2018-02-12T02:07:07.763Z,0
2018-02-12T02:08:08.523Z,0
2018-02-12T02:09:09.239Z,0
2018-02-12T02:10:09.953Z,0
2018-02-12T02:11:10.669Z,0
2018-02-12T02:12:11.404Z,0
2018-02-12T02:13:12.120Z,0
2018-02-12T02:14:12.833Z,0
2018-02-12T02:15:13.546Z,0
2018-02-12T02:16:14.262Z,0
2018-02-12T02:17:14.976Z,0
2018-02-12T02:18:15.690Z,0
2018-02-12T02:19:16.418Z,0
2018-02-12T02:20:17.132Z,0
2018-02-12T02:21:17.871Z,0
2018-02-12T02:22:18.597Z,0
2018-02-12T02:23:19.311Z,0
2018-02-12T02:24:20.059Z,0
2018-02-12T02:25:20.775Z,0
2018-02-12T02:26:21.488Z,0
2018-02-12T02:27:22.201Z,0
2018-02-12T02:28:22.929Z,0
2018-02-12T02:29:23.645Z,0
2018-02-12T02:30:24.359Z,0
2018-02-12T02:31:25.075Z,0
2018-02-12T02:32:25.790Z,0
2018-02-12T02:33:26.505Z,0
2018-02-12T02:34:27.244Z,0
2018-02-12T02:35:27.993Z,0
2018-02-12T02:36:28.720Z,0
2018-02-12T02:37:29.467Z,0
2018-02-12T02:38:30.217Z,0
2018-02-12T02:39:30.933Z,0
2018-02-12T02:40:31.658Z,0
2018-02-12T02:41:32.384Z,0
2018-02-12T02:42:33.100Z,0
2018-02-12T02:43:33.813Z,0
2018-02-12T02:44:34.563Z,0
2018-02-12T02:45:35.287Z,0
2018-02-12T02:46:36.013Z,0
2018-02-12T02:47:36.739Z,0
2018-02-12T02:48:37.704Z,0
2018-02-12T02:49:38.443Z,0
2018-02-12T02:50:39.169Z,0
2018-02-12T02:51:39.897Z,0
2018-02-12T02:52:40.647Z,0
2018-02-12T02:53:41.609Z,0
2018-02-12T02:54:42.326Z,0
2018-02-12T02:55:43.052Z,0
2018-02-12T02:56:43.767Z,0
2018-02-12T02:57:44.517Z,0
2018-02-12T02:58:45.231Z,0
2018-02-12T02:59:45.946Z,0
2018-02-12T03:00:46.660Z,0
2018-02-12T03:01:47.376Z,0
2018-02-12T03:02:48.124Z,0
2018-02-12T03:03:48.841Z,0
2018-02-12T03:04:49.581Z,0
2018-02-12T03:05:50.308Z,0
2018-02-12T03:06:51.020Z,0
2018-02-12T03:07:51.750Z,0
2018-02-12T03:08:52.465Z,0
2018-02-12T03:09:53.179Z,0
2018-02-12T03:10:53.919Z,0
2018-02-12T03:11:54.644Z,0
2018-02-12T03:12:55.359Z,0
2018-02-12T03:13:56.073Z,0
2018-02-12T03:14:56.788Z,0
2018-02-12T03:15:57.504Z,0
2018-02-12T03:16:58.243Z,0
2018-02-12T03:17:58.960Z,0
2018-02-12T03:18:59.696Z,0
2018-02-12T03:20:00.437Z,0
2018-02-12T03:21:01.164Z,0
2018-02-12T03:22:01.926Z,0
2018-02-12T03:23:02.653Z,0
2018-02-12T03:24:03.367Z,0
2018-02-12T03:25:04.085Z,0
2018-02-12T03:26:04.823Z,0
2018-02-12T03:27:05.550Z,0
2018-02-12T03:28:06.266Z,0
2018-02-12T03:29:07.003Z,0
2018-02-12T03:30:07.732Z,0
2018-02-12T03:31:08.463Z,0
2018-02-12T03:32:09.176Z,0
2018-02-12T03:33:09.902Z,0
2018-02-12T03:34:10.619Z,0
2018-02-12T03:35:11.338Z,0
2018-02-12T03:36:12.066Z,0
2018-02-12T03:37:12.795Z,0
2018-02-12T03:38:13.512Z,0
2018-02-12T03:39:14.226Z,0
2018-02-12T03:40:14.943Z,0
2018-02-12T03:41:15.661Z,0
2018-02-12T03:42:16.376Z,0
2018-02-12T03:43:17.104Z,0
2018-02-12T03:44:17.817Z,0
2018-02-12T03:45:18.545Z,0
2018-02-12T03:46:19.262Z,0
2018-02-12T03:47:20.005Z,0
2018-02-12T03:48:20.745Z,0
2018-02-12T03:49:21.473Z,0
2018-02-12T03:50:22.200Z,0
2018-02-12T03:51:22.929Z,0
2018-02-12T03:52:23.647Z,0
2018-02-12T03:53:24.364Z,0
2018-02-12T03:54:25.079Z,0
2018-02-12T03:55:25.821Z,0
2018-02-12T03:56:26.548Z,0
2018-02-12T03:57:27.301Z,0
2018-02-12T03:58:28.045Z,0
2018-02-12T03:59:28.767Z,0
2018-02-12T04:00:29.531Z,0
2018-02-12T04:01:30.258Z,0
2018-02-12T04:02:30.972Z,0
2018-02-12T04:03:31.687Z,0
2018-02-12T04:04:32.438Z,0
2018-02-12T04:05:33.166Z,0
2018-02-12T04:06:33.882Z,0
2018-02-12T04:07:34.600Z,0
2018-02-12T04:08:35.327Z,0
2018-02-12T04:09:36.090Z,0
2018-02-12T04:10:36.818Z,0
2018-02-12T04:11:37.544Z,0
2018-02-12T04:12:38.295Z,0
2018-02-12T04:13:39.020Z,0
2018-02-12T04:14:39.747Z,0
2018-02-12T04:15:40.508Z,0
2018-02-12T04:16:41.226Z,0
2018-02-12T04:17:41.940Z,0
2018-02-12T04:18:42.667Z,0
2018-02-12T04:19:43.383Z,0
2018-02-12T04:20:44.123Z,0
2018-02-12T04:21:44.838Z,0
2018-02-12T04:22:45.552Z,0
2018-02-12T04:23:46.303Z,0
2018-02-12T04:24:47.053Z,0
2018-02-12T04:25:47.770Z,0
2018-02-12T04:26:48.496Z,0
2018-02-12T04:27:49.212Z,0
2018-02-12T04:28:49.925Z,0
2018-02-12T04:29:50.639Z,0
2018-02-12T04:30:51.356Z,0
2018-02-12T04:31:52.094Z,0
2018-02-12T04:32:52.822Z,0
2018-02-12T04:33:53.536Z,0
2018-02-12T04:34:54.259Z,0
2018-02-12T04:35:55.022Z,0
2018-02-12T04:36:55.770Z,0
2018-02-12T04:37:56.487Z,0
2018-02-12T04:38:57.211Z,0
2018-02-12T04:39:57.938Z,0
2018-02-12T04:40:58.664Z,0
2018-02-12T04:41:59.389Z,0
2018-02-12T04:43:00.102Z,0
2018-02-12T04:44:00.852Z,0
2018-02-12T04:45:01.579Z,0
2018-02-12T04:46:02.306Z,0
2018-02-12T04:47:03.023Z,0
2018-02-12T04:48:03.735Z,0
2018-02-12T04:49:04.453Z,0
2018-02-12T04:50:05.170Z,0
2018-02-12T04:51:05.885Z,0
2018-02-12T04:52:06.603Z,0
2018-02-12T04:53:07.317Z,0
2018-02-12T04:54:08.035Z,0
2018-02-12T04:55:08.750Z,0
2018-02-12T04:56:09.500Z,0
2018-02-12T04:57:10.228Z,0
2018-02-12T04:58:10.978Z,0
2018-02-12T04:59:11.708Z,0
2018-02-12T05:00:12.455Z,0
2018-02-12T05:01:13.206Z,0
2018-02-12T05:02:13.921Z,0
2018-02-12T05:03:14.647Z,0
2018-02-12T05:04:15.373Z,0
2018-02-12T05:05:16.088Z,0
2018-02-12T05:06:16.812Z,0
2018-02-12T05:07:17.536Z,0
2018-02-12T05:08:18.251Z,0
2018-02-12T05:09:18.963Z,0
2018-02-12T05:10:19.690Z,0
2018-02-12T05:11:20.405Z,0
2018-02-12T05:12:21.131Z,0
2018-02-12T05:13:21.857Z,0
2018-02-12T05:14:22.572Z,0
2018-02-12T05:15:23.289Z,0
2018-02-12T05:16:24.004Z,0
2018-02-12T05:17:24.718Z,0
2018-02-12T05:18:25.432Z,0
2018-02-12T05:19:26.157Z,0
2018-02-12T05:20:26.872Z,0
2018-02-12T05:21:27.597Z,0
2018-02-12T05:22:28.324Z,0
2018-02-12T05:23:29.039Z,0
2018-02-12T05:24:29.766Z,0
2018-02-12T05:25:30.475Z,0
2018-02-12T05:26:31.225Z,0
2018-02-12T05:27:31.941Z,0
2018-02-12T05:28:32.657Z,0
2018-02-12T05:29:33.382Z,0
2018-02-12T05:30:34.109Z,0
2018-02-12T05:31:34.824Z,0
2018-02-12T05:32:35.551Z,0
2018-02-12T05:33:36.273Z,0
2018-02-12T05:34:37.033Z,0
2018-02-12T05:35:37.749Z,0
2018-02-12T05:36:38.499Z,0
2018-02-12T05:37:39.212Z,0
2018-02-12T05:38:39.925Z,0
2018-02-12T05:39:40.638Z,0
2018-02-12T05:40:41.388Z,0
2018-02-12T05:41:42.108Z,0
2018-02-12T05:42:42.831Z,0
2018-02-12T05:43:43.593Z,0
2018-02-12T05:44:44.307Z,0
2018-02-12T05:45:45.023Z,0
2018-02-12T05:46:45.741Z,0
2018-02-12T05:47:46.455Z,0
2018-02-12T05:48:47.172Z,0
2018-02-12T05:49:47.910Z,0
2018-02-12T05:50:48.626Z,0
2018-02-12T05:51:49.339Z,0
2018-02-12T05:52:50.077Z,0
2018-02-12T05:53:50.798Z,0
2018-02-12T05:54:51.511Z,0
2018-02-12T05:55:52.227Z,0
2018-02-12T05:56:52.943Z,0
2018-02-12T05:57:53.660Z,0
2018-02-12T05:58:54.400Z,0
2018-02-12T05:59:55.139Z,0
2018-02-12T06:00:55.889Z,0
2018-02-12T06:01:56.613Z,0
2018-02-12T06:02:57.327Z,0
2018-02-12T06:03:58.066Z,0
2018-02-12T06:04:58.783Z,0
2018-02-12T06:05:59.498Z,0
2018-02-12T06:07:00.213Z,0
2018-02-12T06:08:00.939Z,0
2018-02-12T06:09:01.689Z,0
2018-02-12T06:10:02.428Z,0
2018-02-12T06:11:03.156Z,0
2018-02-12T06:12:03.908Z,0
2018-02-12T06:13:04.634Z,0
2018-02-12T06:14:05.362Z,0
2018-02-12T06:15:06.075Z,0
2018-02-12T06:16:06.789Z,0
2018-02-12T06:17:07.519Z,0
2018-02-12T06:18:08.273Z,0
2018-02-12T06:19:08.962Z,0
2018-02-12T06:20:09.677Z,0
2018-02-12T06:21:10.393Z,4
2018-02-12T06:22:11.111Z,4
2018-02-12T06:23:11.838Z,4
2018-02-12T06:24:12.590Z,4
2018-02-12T06:25:13.304Z,4
2018-02-12T06:26:14.073Z,8
2018-02-12T06:27:14.799Z,8
2018-02-12T06:28:15.518Z,12
2018-02-12T06:29:16.262Z,12
2018-02-12T06:30:16.975Z,16
2018-02-12T06:31:17.706Z,16
2018-02-12T06:32:18.457Z,20
2018-02-12T06:33:19.176Z,24
2018-02-12T06:34:19.905Z,28
2018-02-12T06:35:20.636Z,36
2018-02-12T06:36:21.352Z,40
2018-02-12T06:37:22.090Z,40
2018-02-12T06:38:22.823Z,44
2018-02-12T06:39:23.549Z,52
2018-02-12T06:40:24.301Z,56
2018-02-12T06:41:25.030Z,56
2018-02-12T06:42:25.748Z,64
2018-02-12T06:43:26.465Z,72
2018-02-12T06:44:27.195Z,64
2018-02-12T06:45:27.912Z,56
2018-02-12T06:46:28.633Z,56
2018-02-12T06:47:29.360Z,84
2018-02-12T06:48:30.093Z,108
2018-02-12T06:49:30.810Z,100
2018-02-12T06:50:31.539Z,92
2018-02-12T06:51:32.292Z,92
2018-02-12T06:52:33.043Z,92
2018-02-12T06:53:33.794Z,84
2018-02-12T06:54:34.492Z,80
2018-02-12T06:55:35.243Z,84
2018-02-12T06:56:35.961Z,104
2018-02-12T06:57:36.765Z,152
2018-02-12T06:58:37.481Z,176
2018-02-12T06:59:38.230Z,164
2018-02-12T07:00:38.986Z,144
2018-02-12T07:01:39.698Z,148
2018-02-12T07:02:40.416Z,164
2018-02-12T07:03:41.147Z,160
2018-02-12T07:04:41.865Z,168
2018-02-12T07:05:42.609Z,184
2018-02-12T07:06:43.325Z,224
2018-02-12T07:07:44.044Z,200
2018-02-12T07:08:44.761Z,212
2018-02-12T07:09:45.481Z,240
2018-02-12T07:10:46.225Z,296
2018-02-12T07:11:46.956Z,368
2018-02-12T07:12:47.675Z,436
2018-02-12T07:13:48.418Z,484
2018-02-12T07:14:49.150Z,544
2018-02-12T07:15:49.868Z,600
2018-02-12T07:16:50.600Z,772
2018-02-12T07:17:51.330Z,868
2018-02-12T07:18:52.062Z,964
2018-02-12T07:19:52.822Z,1084
2018-02-12T07:20:53.554Z,1116
2018-02-12T07:21:54.274Z,1064
2018-02-12T07:22:54.998Z,1140
2018-02-12T07:23:55.719Z,1188
2018-02-12T07:24:56.452Z,1232
2018-02-12T07:25:57.206Z,1324
2018-02-12T07:26:57.962Z,1356
2018-02-12T07:27:58.694Z,1652
2018-02-12T07:28:59.448Z,1412
2018-02-12T07:30:00.170Z,1684
2018-02-12T07:31:00.927Z,1752
2018-02-12T07:32:01.649Z,1836
2018-02-12T07:33:02.370Z,1988
2018-02-12T07:34:03.113Z,2176
2018-02-12T07:35:03.836Z,2352
2018-02-12T07:36:04.561Z,2516
2018-02-12T07:37:05.339Z,2724
2018-02-12T07:38:06.022Z,2912
2018-02-12T07:39:06.744Z,3152
2018-02-12T07:40:07.466Z,3264
2018-02-12T07:41:08.198Z,3316
2018-02-12T07:42:08.929Z,3376
2018-02-12T07:43:09.650Z,3472
2018-02-12T07:44:10.371Z,3628
2018-02-12T07:45:11.092Z,4080
2018-02-12T07:46:11.827Z,4592
2018-02-12T07:47:12.592Z,4716
2018-02-12T07:48:13.325Z,4868
2018-02-12T07:49:14.047Z,4012
2018-02-12T07:50:14.771Z,3316
2018-02-12T07:51:15.492Z,2812
2018-02-12T07:52:16.210Z,2628
2018-02-12T07:53:16.930Z,2596
2018-02-12T07:54:17.662Z,2804
2018-02-12T07:55:18.429Z,3288
2018-02-12T07:56:19.152Z,3880
2018-02-12T07:57:19.872Z,4828
2018-02-12T07:58:20.593Z,4804
2018-02-12T07:59:21.325Z,4236
2018-02-12T08:00:22.048Z,3804
2018-02-12T08:01:22.821Z,3864
2018-02-12T08:02:23.550Z,4064
2018-02-12T08:03:24.296Z,4456
2018-02-12T08:04:25.029Z,4540
2018-02-12T08:05:25.753Z,4188
2018-02-12T08:06:26.477Z,3684
2018-02-12T08:07:27.211Z,3456
2018-02-12T08:08:27.969Z,3516
2018-02-12T08:09:28.720Z,3784
2018-02-12T08:10:29.452Z,3716
2018-02-12T08:11:30.175Z,3396
2018-02-12T08:12:30.903Z,3536
2018-02-12T08:13:31.642Z,3944
2018-02-12T08:14:32.375Z,4100
2018-02-12T08:15:33.097Z,4248
2018-02-12T08:16:33.853Z,4732
2018-02-12T08:17:34.576Z,5040
2018-02-12T08:18:35.326Z,5000
2018-02-12T08:19:36.073Z,4908
2018-02-12T08:20:36.824Z,5076
2018-02-12T08:21:37.576Z,5168
2018-02-12T08:22:38.299Z,5116
2018-02-12T08:23:39.036Z,4888
2018-02-12T08:24:39.755Z,4652
2018-02-12T08:25:40.475Z,4824
2018-02-12T08:26:41.200Z,5384
2018-02-12T08:27:41.924Z,5928
2018-02-12T08:28:42.646Z,6252
2018-02-12T08:29:43.368Z,6540
2018-02-12T08:30:44.101Z,7188
2018-02-12T08:31:44.859Z,7900
2018-02-12T08:32:45.583Z,8248
2018-02-12T08:33:46.304Z,8376
2018-02-12T08:34:47.038Z,8108
2018-02-12T08:35:47.770Z,7584
2018-02-12T08:36:48.493Z,6768
2018-02-12T08:37:49.215Z,7552
2018-02-12T08:38:49.936Z,5396
2018-02-12T08:39:50.681Z,4280
2018-02-12T08:40:51.403Z,4404
2018-02-12T08:41:52.126Z,4768
2018-02-12T08:42:52.847Z,5808
2018-02-12T08:43:53.584Z,7116
2018-02-12T08:44:54.339Z,7528
2018-02-12T08:45:55.066Z,7448
2018-02-12T08:46:55.800Z,7920
2018-02-12T08:47:56.522Z,7916
2018-02-12T08:48:57.280Z,7340
2018-02-12T08:49:58.013Z,8060
2018-02-12T08:50:58.739Z,11248
2018-02-12T08:51:59.460Z,7852
2018-02-12T08:53:00.194Z,8660
2018-02-12T08:54:00.922Z,7620
2018-02-12T08:55:01.657Z,8648
2018-02-12T08:56:02.375Z,9132
2018-02-12T08:57:03.109Z,9128
2018-02-12T08:58:03.843Z,9536
2018-02-12T08:59:04.566Z,11572
2018-02-12T09:00:05.290Z,10296
2018-02-12T09:01:06.018Z,12036
2018-02-12T09:02:06.758Z,16224
2018-02-12T09:03:07.514Z,24064
2018-02-12T09:04:08.253Z,21696
2018-02-12T09:05:08.991Z,22592
2018-02-12T09:06:09.719Z,24928
2018-02-12T09:07:10.461Z,16320
2018-02-12T09:08:11.187Z,22208
2018-02-12T09:09:11.976Z,18944
2018-02-12T09:10:12.655Z,23744
2018-02-12T09:11:13.396Z,16000
2018-02-12T09:12:14.162Z,26208
2018-02-12T09:13:14.916Z,26848
2018-02-12T09:14:15.648Z,24992
2018-02-12T09:15:16.390Z,32256
2018-02-12T09:16:17.122Z,31232
2018-02-12T09:17:17.853Z,29728
2018-02-12T09:18:18.584Z,28096
2018-02-12T09:19:19.316Z,25376
2018-02-12T09:20:20.059Z,10524
2018-02-12T09:21:20.788Z,7472
2018-02-12T09:22:21.517Z,5836
2018-02-12T09:23:22.248Z,5120
2018-02-12T09:24:22.973Z,4728
2018-02-12T09:25:23.714Z,4424
2018-02-12T09:26:24.479Z,4084
2018-02-12T09:27:25.206Z,4092
2018-02-12T09:28:25.942Z,4176
2018-02-12T09:29:26.681Z,4476
2018-02-12T09:30:27.418Z,5100
2018-02-12T09:31:28.157Z,5744
2018-02-12T09:32:28.879Z,6480
2018-02-12T09:33:29.605Z,7272
2018-02-12T09:34:30.364Z,9212
2018-02-12T09:35:31.087Z,12372
2018-02-12T09:36:31.821Z,19200
2018-02-12T09:37:32.555Z,26016
2018-02-12T09:38:33.321Z,28576
2018-02-12T09:39:34.062Z,29568
2018-02-12T09:40:34.786Z,29344
2018-02-12T09:41:35.576Z,29152
2018-02-12T09:42:36.272Z,29504
2018-02-12T09:43:37.009Z,30272
2018-02-12T09:44:37.753Z,29984
2018-02-12T09:45:38.495Z,21632
2018-02-12T09:46:39.227Z,28160
2018-02-12T09:47:39.970Z,28096
2018-02-12T09:48:40.711Z,16608
2018-02-12T09:49:41.446Z,26688
2018-02-12T09:50:42.178Z,30464
2018-02-12T09:51:42.921Z,27168
2018-02-12T09:52:43.690Z,26720
2018-02-12T09:53:44.433Z,29376
2018-02-12T09:54:45.165Z,25536
2018-02-12T09:55:45.909Z,24000
2018-02-12T09:56:46.654Z,21952
2018-02-12T09:57:47.397Z,31840
2018-02-12T09:58:48.174Z,30368
2018-02-12T09:59:48.875Z,30688
2018-02-12T10:00:49.635Z,34208
2018-02-12T10:01:50.404Z,33088
2018-02-12T10:02:51.140Z,30912
2018-02-12T10:03:51.882Z,30944
2018-02-12T10:04:52.613Z,33152
2018-02-12T10:05:53.349Z,34496
2018-02-12T10:06:54.088Z,34272
2018-02-12T10:07:54.848Z,33408
2018-02-12T10:08:55.582Z,9252
2018-02-12T10:09:56.345Z,33120
2018-02-12T10:10:57.094Z,33920
2018-02-12T10:11:57.841Z,13472
2018-02-12T10:12:58.574Z,8040
2018-02-12T10:13:59.322Z,14848
2018-02-12T10:15:00.060Z,33280
2018-02-12T10:16:00.791Z,37440
2018-02-12T10:17:01.563Z,36224
2018-02-12T10:18:02.301Z,34240
2018-02-12T10:19:03.073Z,9788
2018-02-12T10:20:03.810Z,13360
2018-02-12T10:21:04.542Z,7100
2018-02-12T10:22:05.278Z,35680
2018-02-12T10:23:06.047Z,38016
2018-02-12T10:24:06.794Z,37664
2018-02-12T10:25:07.528Z,13156
2018-02-12T10:26:08.274Z,28992
2018-02-12T10:27:09.011Z,35456
2018-02-12T10:28:09.747Z,37024
2018-02-12T10:29:10.485Z,36768
2018-02-12T10:30:11.219Z,36448
2018-02-12T10:31:11.958Z,36960
2018-02-12T10:32:12.751Z,34560
2018-02-12T10:33:13.442Z,37024
2018-02-12T10:34:14.178Z,17088
2018-02-12T10:35:14.926Z,38816
2018-02-12T10:36:15.710Z,15228
2018-02-12T10:37:16.494Z,36000
2018-02-12T10:38:17.227Z,26912
2018-02-12T10:39:17.963Z,37792
2018-02-12T10:40:18.720Z,37408
2018-02-12T10:41:19.456Z,38720
2018-02-12T10:42:20.204Z,38912
2018-02-12T10:43:20.939Z,38432
2018-02-12T10:44:21.673Z,11516
2018-02-12T10:45:22.436Z,22368
2018-02-12T10:46:23.185Z,37632
2018-02-12T10:47:23.921Z,28512
2018-02-12T10:48:24.658Z,36352
2018-02-12T10:49:25.398Z,36576
2018-02-12T10:50:26.149Z,39808
2018-02-12T10:51:26.885Z,14760
2018-02-12T10:52:27.622Z,38304
2018-02-12T10:53:28.370Z,20640
2018-02-12T10:54:29.106Z,12292
2018-02-12T10:55:29.848Z,37280
2018-02-12T10:56:30.580Z,36672
2018-02-12T10:57:31.327Z,36800
2018-02-12T10:58:32.066Z,37952
2018-02-12T10:59:32.821Z,38240
2018-02-12T11:00:33.564Z,38592
2018-02-12T11:01:34.310Z,36800
2018-02-12T11:02:35.103Z,36832
2018-02-12T11:03:35.807Z,33664
2018-02-12T11:04:36.544Z,33600
2018-02-12T11:05:37.280Z,39424
2018-02-12T11:06:38.028Z,12716
2018-02-12T11:07:38.763Z,37216
2018-02-12T11:08:39.500Z,36160
2018-02-12T11:09:40.235Z,37696
2018-02-12T11:10:40.971Z,39552
2018-02-12T11:11:41.710Z,37760
2018-02-12T11:12:42.446Z,13008
2018-02-12T11:13:43.220Z,37056
2018-02-12T11:14:43.967Z,35872
2018-02-12T11:15:44.702Z,36576
2018-02-12T11:16:45.451Z,36160
2018-02-12T11:17:46.240Z,36928
2018-02-12T11:18:46.985Z,36448
2018-02-12T11:19:47.758Z,31072
2018-02-12T11:20:48.495Z,35200
2018-02-12T11:21:49.246Z,34496
2018-02-12T11:22:49.984Z,35072
2018-02-12T11:23:50.734Z,35648
2018-02-12T11:24:51.474Z,12748
2018-02-12T11:25:52.210Z,21376
2018-02-12T11:26:52.959Z,36768
2018-02-12T11:27:53.708Z,38304
2018-02-12T11:28:54.448Z,36960
2018-02-12T11:29:55.184Z,38592
2018-02-12T11:30:55.931Z,12412
2018-02-12T11:31:56.681Z,39040
2018-02-12T11:32:57.462Z,22880
2018-02-12T11:33:58.208Z,18016
2018-02-12T11:34:58.947Z,38912
2018-02-12T11:35:59.681Z,11708
2018-02-12T11:37:00.417Z,34592
2018-02-12T11:38:01.162Z,10148
2018-02-12T11:39:01.910Z,13488
2018-02-12T11:40:02.658Z,38176
2018-02-12T11:41:03.406Z,14572
2018-02-12T11:42:04.138Z,15824
2018-02-12T11:43:04.876Z,45696
2018-02-12T11:44:05.622Z,18336
2018-02-12T11:45:06.356Z,12244
2018-02-12T11:46:07.127Z,10112
2018-02-12T11:47:07.860Z,9660
2018-02-12T11:48:08.621Z,10192
2018-02-12T11:49:09.327Z,27040
2018-02-12T11:50:10.059Z,10136
2018-02-12T11:51:10.802Z,14720
2018-02-12T11:52:11.535Z,40608
2018-02-12T11:53:12.266Z,9040
2018-02-12T11:54:13.002Z,38976
2018-02-12T11:55:13.739Z,37440
2018-02-12T11:56:14.499Z,37888
2018-02-12T11:57:15.245Z,8324
2018-02-12T11:58:15.992Z,12992
2018-02-12T11:59:16.765Z,39360
2018-02-12T12:00:17.502Z,40896
2018-02-12T12:01:18.236Z,43872
2018-02-12T12:02:18.972Z,44768
2018-02-12T12:03:19.729Z,41984
2018-02-12T12:04:20.468Z,40640
2018-02-12T12:05:21.248Z,40640
2018-02-12T12:06:21.946Z,15032
2018-02-12T12:07:22.686Z,15320
2018-02-12T12:08:23.432Z,22976
2018-02-12T12:09:24.167Z,46496
2018-02-12T12:10:24.917Z,44096
2018-02-12T12:11:25.661Z,18080
2018-02-12T12:12:26.407Z,16704
2018-02-12T12:13:27.176Z,14816
2018-02-12T12:14:27.911Z,41472
2018-02-12T12:15:28.677Z,14160
2018-02-12T12:16:29.447Z,42528
2018-02-12T12:17:30.185Z,42816
2018-02-12T12:18:30.931Z,41120
2018-02-12T12:19:31.686Z,38880
2018-02-12T12:20:32.419Z,38624
2018-02-12T12:21:33.159Z,36576
2018-02-12T12:22:33.907Z,32544
2018-02-12T12:23:34.654Z,16128
2018-02-12T12:24:35.388Z,38176
2018-02-12T12:25:36.123Z,36576
2018-02-12T12:26:36.860Z,35296
2018-02-12T12:27:37.596Z,36896
2018-02-12T12:28:38.344Z,37792
2018-02-12T12:29:39.118Z,37344
2018-02-12T12:30:39.870Z,36768
2018-02-12T12:31:40.638Z,35744
2018-02-12T12:32:41.381Z,34304
2018-02-12T12:33:42.131Z,33728
2018-02-12T12:34:42.867Z,33632
2018-02-12T12:35:43.618Z,32928
2018-02-12T12:36:44.356Z,32896
2018-02-12T12:37:45.092Z,32928
2018-02-12T12:38:45.832Z,35072
2018-02-12T12:39:46.582Z,34752
2018-02-12T12:40:47.354Z,32320
2018-02-12T12:41:48.095Z,32416
2018-02-12T12:42:48.841Z,31296
2018-02-12T12:43:49.579Z,32128
2018-02-12T12:44:50.338Z,31008
2018-02-12T12:45:51.077Z,32736
2018-02-12T12:46:51.848Z,22816
2018-02-12T12:47:52.618Z,7764
2018-02-12T12:48:53.353Z,7248
2018-02-12T12:49:54.085Z,19776
2018-02-12T12:50:54.817Z,8332
2018-02-12T12:51:55.551Z,7988
2018-02-12T12:52:56.305Z,9444
2018-02-12T12:53:57.050Z,22784
2018-02-12T12:54:57.781Z,20384
2018-02-12T12:55:58.539Z,10500
2018-02-12T12:56:59.295Z,9260
2018-02-12T12:58:00.027Z,7992
2018-02-12T12:59:00.788Z,9904
2018-02-12T13:00:01.529Z,8700
2018-02-12T13:01:02.270Z,18272
2018-02-12T13:02:03.013Z,32640
2018-02-12T13:03:03.777Z,12448
2018-02-12T13:04:04.509Z,15616
2018-02-12T13:05:05.238Z,24128
2018-02-12T13:06:05.968Z,12020
2018-02-12T13:07:06.696Z,25600
2018-02-12T13:08:07.427Z,32160
2018-02-12T13:09:08.161Z,22144
2018-02-12T13:10:08.907Z,31712
2018-02-12T13:11:09.642Z,26368
2018-02-12T13:12:10.386Z,5232
2018-02-12T13:13:11.116Z,5704
2018-02-12T13:14:11.882Z,15424
2018-02-12T13:15:12.614Z,26240
2018-02-12T13:16:13.349Z,28352
2018-02-12T13:17:14.084Z,11016
2018-02-12T13:18:14.828Z,29088
2018-02-12T13:19:15.571Z,12496
2018-02-12T13:20:16.314Z,12116
2018-02-12T13:21:17.044Z,11736
2018-02-12T13:22:17.787Z,11908
2018-02-12T13:23:18.553Z,28800
2018-02-12T13:24:19.297Z,27488
2018-02-12T13:25:20.041Z,27296
2018-02-12T13:26:20.785Z,25824
2018-02-12T13:27:21.566Z,24832
2018-02-12T13:28:22.311Z,11220
2018-02-12T13:29:23.042Z,24992
2018-02-12T13:30:23.786Z,22336
2018-02-12T13:31:24.528Z,21120
2018-02-12T13:32:25.264Z,11776
2018-02-12T13:33:25.992Z,24896
2018-02-12T13:34:26.726Z,10532
2018-02-12T13:35:27.460Z,26048
2018-02-12T13:36:28.204Z,24448
2018-02-12T13:37:28.983Z,24800
2018-02-12T13:38:29.722Z,25568
2018-02-12T13:39:30.466Z,26912
2018-02-12T13:40:31.200Z,27040
2018-02-12T13:41:31.950Z,26752
2018-02-12T13:42:32.683Z,26752
2018-02-12T13:43:33.420Z,24000
2018-02-12T13:44:34.154Z,23264
2018-02-12T13:45:34.890Z,20352
2018-02-12T13:46:35.635Z,24640
2018-02-12T13:47:36.375Z,25504
2018-02-12T13:48:37.109Z,24000
2018-02-12T13:49:37.843Z,16128
2018-02-12T13:50:38.587Z,19616
2018-02-12T13:51:39.318Z,18176
2018-02-12T13:52:40.049Z,8164
2018-02-12T13:53:40.798Z,6840
2018-02-12T13:54:41.531Z,6076
2018-02-12T13:55:42.264Z,6288
2018-02-12T13:56:43.030Z,6652
2018-02-12T13:57:43.759Z,8484
2018-02-12T13:58:44.492Z,10184
2018-02-12T13:59:45.234Z,9972
2018-02-12T14:00:45.962Z,12560